Time;durP1;ratioP1;P1;durP2;ratioP2;P2;SDS_P1;SDS_P2;PMS_P1;PMS_P2;Temp;Humidity;BMP_temperature;BMP_pressure;BME280_temperature;BME280_humidity;BME280_pressure;Samples;Min_cycle;Max_cycle;Signal;HPM_P1;HPM_P2
2022/12/12 00:00:09;;;;;;;25.55;15.82;;;1.40;99.90;;;;;;5089621;28;20032;-63
2022/12/12 00:02:38;;;;;;;32.35;19.50;;;1.40;99.90;;;;;;5091093;28;20330;-64
2022/12/12 00:05:06;;;;;;;31.50;20.00;;;1.30;99.90;;;;;;5089426;28;20089;-64
2022/12/12 00:07:31;;;;;;;33.08;19.85;;;1.30;99.90;;;;;;5070910;28;20051;-64
2022/12/12 00:09:57;;;;;;;27.25;17.42;;;1.30;99.90;;;;;;5089385;28;20016;-64
2022/12/12 00:12:22;;;;;;;28.20;17.83;;;1.20;99.90;;;;;;5092165;28;20028;-63
2022/12/12 00:14:48;;;;;;;27.75;17.67;;;1.30;99.90;;;;;;5088945;28;20020;-63
2022/12/12 00:17:13;;;;;;;28.20;17.10;;;1.30;99.90;;;;;;5089126;28;20089;-64
2022/12/12 00:19:39;;;;;;;33.53;20.20;;;1.30;99.90;;;;;;5092012;28;20028;-63
2022/12/12 00:22:04;;;;;;;30.70;19.50;;;1.30;99.90;;;;;;5088659;28;20070;-63
2022/12/12 00:24:30;;;;;;;26.83;16.95;;;1.30;99.90;;;;;;5089074;28;20081;-63
2022/12/12 00:26:55;;;;;;;30.70;19.00;;;1.20;99.90;;;;;;5088600;28;20038;-63
2022/12/12 00:29:21;;;;;;;30.92;18.20;;;1.20;99.90;;;;;;5091686;28;20375;-63
2022/12/12 00:31:46;;;;;;;31.27;18.95;;;1.20;99.90;;;;;;5090152;28;20080;-63
2022/12/12 00:34:12;;;;;;;29.90;18.67;;;1.20;99.90;;;;;;5094432;28;20055;-64
2022/12/12 00:36:38;;;;;;;32.70;19.83;;;1.20;99.90;;;;;;5088694;28;20439;-63
2022/12/12 00:39:03;;;;;;;32.40;19.80;;;1.10;99.90;;;;;;5088608;28;20036;-63
2022/12/12 00:41:29;;;;;;;34.40;20.27;;;1.10;99.90;;;;;;5093510;28;20027;-63
2022/12/12 00:43:54;;;;;;;35.70;19.13;;;1.10;99.90;;;;;;5088740;28;20103;-63
2022/12/12 00:46:22;;;;;;;33.75;20.55;;;1.00;99.90;;;;;;5088541;28;20027;-64
2022/12/12 00:48:48;;;;;;;33.53;19.98;;;0.90;99.90;;;;;;5073001;28;20024;-63
2022/12/12 00:51:17;;;;;;;31.60;19.35;;;1.00;99.90;;;;;;5088679;28;20052;-64
2022/12/12 00:53:43;;;;;;;30.83;19.17;;;0.90;99.90;;;;;;5091613;28;20059;-63
2022/12/12 00:56:09;;;;;;;30.45;18.30;;;0.90;99.90;;;;;;5089300;28;20055;-63
2022/12/12 00:58:34;;;;;;;28.95;17.67;;;1.00;99.90;;;;;;5093259;28;20028;-63
2022/12/12 01:01:05;;;;;;;23.80;14.48;;;1.00;99.90;;;;;;5088787;28;20536;-63
2022/12/12 01:03:35;;;;;;;23.67;14.00;;;1.10;99.90;;;;;;5089713;28;20032;-63
2022/12/12 01:06:01;;;;;;;25.42;16.27;;;1.10;99.90;;;;;;5088350;28;20421;-63
2022/12/12 01:08:27;;;;;;;23.13;13.90;;;1.10;99.90;;;;;;5088287;28;20054;-63
2022/12/12 01:10:53;;;;;;;30.13;17.52;;;1.10;99.90;;;;;;5101604;28;20016;-63
2022/12/12 01:13:18;;;;;;;31.70;17.77;;;1.10;99.90;;;;;;5116325;28;20030;-63
2022/12/12 01:15:44;;;;;;;32.80;18.58;;;1.10;99.90;;;;;;5093733;28;20038;-63
2022/12/12 01:18:10;;;;;;;30.77;17.88;;;1.00;99.90;;;;;;5094373;28;20369;-63
2022/12/12 01:20:35;;;;;;;26.33;16.20;;;1.00;99.90;;;;;;5088254;28;20066;-64
2022/12/12 01:23:01;;;;;;;24.90;15.48;;;1.00;99.90;;;;;;5070045;28;20431;-63
2022/12/12 01:25:26;;;;;;;25.95;16.10;;;1.00;99.90;;;;;;5088241;28;20608;-63
2022/12/12 01:27:52;;;;;;;26.52;16.08;;;1.00;99.90;;;;;;5077748;28;20358;-63
2022/12/12 01:30:21;;;;;;;24.67;15.07;;;1.00;99.90;;;;;;5094968;28;20028;-64
2022/12/12 01:32:46;;;;;;;24.05;14.88;;;1.00;99.90;;;;;;5092031;28;20485;-63
2022/12/12 01:35:12;;;;;;;25.45;14.43;;;1.00;99.90;;;;;;5092191;28;20069;-63
2022/12/12 01:37:39;;;;;;;22.55;14.15;;;1.00;99.90;;;;;;5076614;28;20028;-64
2022/12/12 01:40:07;;;;;;;23.30;13.45;;;1.10;99.90;;;;;;5092149;28;20020;-63
2022/12/12 01:42:33;;;;;;;24.70;15.55;;;1.10;99.90;;;;;;5094763;28;20076;-63
2022/12/12 01:44:59;;;;;;;27.38;16.35;;;1.00;99.90;;;;;;5093699;27;20102;-63
2022/12/12 01:47:25;;;;;;;28.80;17.70;;;1.00;99.90;;;;;;5092019;28;20032;-63
2022/12/12 01:50:08;;;;;;;29.92;18.08;;;1.00;99.90;;;;;;5092033;28;20028;-63
2022/12/12 01:52:42;;;;;;;27.60;17.98;;;0.90;99.90;;;;;;5073524;28;20365;-63
2022/12/12 01:55:14;;;;;;;26.98;16.30;;;0.90;99.90;;;;;;5092297;27;20473;-63
2022/12/12 01:57:44;;;;;;;24.02;14.48;;;0.80;99.90;;;;;;5094703;28;20482;-63
2022/12/12 02:00:12;;;;;;;21.30;13.18;;;0.80;99.90;;;;;;5073294;28;20484;-62
2022/12/12 02:02:41;;;;;;;21.02;11.73;;;0.80;99.90;;;;;;5073450;28;20023;-63
2022/12/12 02:05:19;;;;;;;19.63;12.15;;;0.80;99.90;;;;;;5094636;28;20418;-63
2022/12/12 02:07:45;;;;;;;15.98;9.63;;;0.90;99.90;;;;;;5092375;28;20047;-64
2022/12/12 02:10:11;;;;;;;18.00;9.95;;;0.90;99.90;;;;;;5091956;28;20448;-64
2022/12/12 02:12:36;;;;;;;15.20;9.50;;;0.90;99.90;;;;;;5076154;28;20454;-63
2022/12/12 02:15:02;;;;;;;17.27;10.00;;;0.90;99.90;;;;;;5091525;28;20024;-63
2022/12/12 02:17:54;;;;;;;14.48;9.32;;;1.00;99.90;;;;;;5099401;27;20035;-64
2022/12/12 02:20:45;;;;;;;19.45;11.57;;;1.00;99.90;;;;;;5074005;28;20032;-63
2022/12/12 02:23:44;;;;;;;24.92;14.45;;;0.90;99.90;;;;;;5094227;28;20051;-64
2022/12/12 02:26:46;;;;;;;24.80;15.38;;;0.80;99.90;;;;;;5094278;28;20035;-64
2022/12/12 02:29:11;;;;;;;24.23;14.18;;;0.70;99.90;;;;;;5078385;28;20018;-63
2022/12/12 02:31:47;;;;;;;26.38;16.48;;;0.60;99.90;;;;;;5094902;28;20020;-63
2022/12/12 02:34:24;;;;;;;24.50;15.48;;;0.60;99.90;;;;;;5091254;28;20040;-64
2022/12/12 02:37:29;;;;;;;27.80;16.13;;;0.50;99.90;;;;;;5090919;28;20059;-63
2022/12/12 02:40:02;;;;;;;30.63;17.20;;;0.40;99.90;;;;;;5093175;27;20019;-64
2022/12/12 02:42:43;;;;;;;27.90;16.83;;;0.30;99.90;;;;;;5095075;28;20013;-64
2022/12/12 02:45:19;;;;;;;30.10;18.05;;;0.30;99.90;;;;;;5090761;28;20489;-63
2022/12/12 02:47:55;;;;;;;29.08;16.52;;;0.20;99.90;;;;;;5090719;28;20031;-63
2022/12/12 02:50:23;;;;;;;31.67;17.33;;;0.20;99.90;;;;;;5093447;28;20031;-64
2022/12/12 02:52:49;;;;;;;31.65;18.95;;;0.20;99.90;;;;;;5091377;28;20415;-64
2022/12/12 02:55:16;;;;;;;32.13;19.05;;;0.10;99.90;;;;;;5093003;28;20028;-64
2022/12/12 02:57:41;;;;;;;34.50;20.10;;;0.10;99.90;;;;;;5096100;28;20385;-64
2022/12/12 03:00:16;;;;;;;34.75;19.98;;;0.00;99.90;;;;;;5093489;28;20020;-63
2022/12/12 03:02:50;;;;;;;34.40;20.25;;;0.00;99.90;;;;;;5091423;27;20117;-64
2022/12/12 03:08:50;;;;;;;35.38;20.55;;;-0.10;99.90;;;;;;5093959;28;20095;-65
2022/12/12 03:11:59;;;;;;;36.20;21.02;;;-0.20;99.90;;;;;;5090251;28;20044;-64
2022/12/12 03:15:07;;;;;;;37.22;20.85;;;-0.20;99.90;;;;;;5091504;28;20477;-64
2022/12/12 03:17:53;;;;;;;32.65;19.20;;;-0.20;99.90;;;;;;5083231;27;20043;-64
2022/12/12 03:20:57;;;;;;;33.42;19.25;;;-0.20;99.90;;;;;;5090464;28;20039;-64
2022/12/12 03:23:27;;;;;;;29.25;17.20;;;-0.20;99.90;;;;;;5087153;28;20108;-65
2022/12/12 03:26:34;;;;;;;31.35;18.13;;;-0.20;99.90;;;;;;5092673;28;20056;-64
2022/12/12 03:29:10;;;;;;;27.42;14.90;;;-0.10;99.90;;;;;;5059953;27;20062;-64
2022/12/12 03:31:39;;;;;;;24.50;14.05;;;-0.10;99.90;;;;;;5120451;27;20076;-65
2022/12/12 03:34:18;;;;;;;26.27;16.05;;;-0.10;99.90;;;;;;5096052;27;20044;-64
2022/12/12 03:36:58;;;;;;;29.67;16.65;;;-0.10;99.90;;;;;;5098189;28;20019;-65
2022/12/12 03:39:32;;;;;;;36.07;18.87;;;-0.10;99.90;;;;;;5090042;28;20458;-64
2022/12/12 03:42:29;;;;;;;37.78;21.15;;;-0.20;99.90;;;;;;5089924;28;20275;-64
2022/12/12 03:45:07;;;;;;;36.58;20.35;;;-0.20;99.90;;;;;;5089536;28;20044;-64
2022/12/12 03:47:44;;;;;;;34.35;18.23;;;-0.20;99.90;;;;;;5071225;28;20108;-64
2022/12/12 03:50:41;;;;;;;27.27;15.82;;;-0.20;99.90;;;;;;5089247;28;20082;-64
2022/12/12 03:53:19;;;;;;;24.50;13.52;;;-0.20;99.90;;;;;;5080825;28;20050;-64
2022/12/12 03:56:11;;;;;;;21.17;12.60;;;-0.20;99.90;;;;;;5094300;28;20091;-63
2022/12/12 03:58:55;;;;;;;25.48;13.52;;;-0.10;99.90;;;;;;5095142;28;20031;-65
2022/12/12 04:01:27;;;;;;;21.23;11.75;;;-0.10;99.90;;;;;;5071373;28;20031;-64
2022/12/12 04:04:07;;;;;;;21.02;12.45;;;-0.10;99.90;;;;;;5094362;28;20028;-64
2022/12/12 04:06:50;;;;;;;20.40;11.82;;;-0.10;99.90;;;;;;5089244;28;20028;-63
2022/12/12 04:15:27;;;;;;;21.05;11.57;;;-0.10;99.90;;;;;;5092453;28;20050;-63
2022/12/12 04:18:24;;;;;;;19.73;11.52;;;-0.10;99.90;;;;;;5092195;27;20028;-64
2022/12/12 04:24:04;;;;;;;21.05;11.48;;;-0.20;99.90;;;;;;5091777;28;20066;-63
2022/12/12 04:26:40;;;;;;;19.77;12.23;;;-0.20;99.90;;;;;;5073261;28;20120;-63
2022/12/12 04:29:20;;;;;;;22.80;11.52;;;-0.30;99.90;;;;;;5085959;28;20028;-62
2022/12/12 04:31:59;;;;;;;18.70;11.48;;;-0.30;99.90;;;;;;5088841;28;20052;-63
2022/12/12 04:34:38;;;;;;;20.17;12.18;;;-0.30;99.90;;;;;;5093502;28;20040;-63
2022/12/12 04:37:06;;;;;;;20.40;11.30;;;-0.30;99.90;;;;;;5089215;28;20071;-64
2022/12/12 04:39:33;;;;;;;19.05;11.27;;;-0.40;99.90;;;;;;5089853;28;20058;-64
2022/12/12 04:42:02;;;;;;;21.40;12.30;;;-0.40;99.90;;;;;;5088849;28;20035;-64
2022/12/12 04:44:30;;;;;;;20.67;12.02;;;-0.40;99.90;;;;;;5091684;28;20035;-63
2022/12/12 04:46:58;;;;;;;22.67;12.43;;;-0.50;99.90;;;;;;5089568;28;20519;-64
2022/12/12 04:49:27;;;;;;;22.52;11.68;;;-0.50;99.90;;;;;;5070192;28;20050;-64
2022/12/12 04:51:58;;;;;;;19.40;11.77;;;-0.50;99.90;;;;;;5088784;28;20030;-64
2022/12/12 04:54:43;;;;;;;28.23;11.23;;;-0.50;99.90;;;;;;5091633;28;20652;-64
2022/12/12 04:57:14;;;;;;;19.73;10.77;;;-0.50;99.90;;;;;;5086020;28;20038;-64
2022/12/12 04:59:39;;;;;;;20.35;11.48;;;-0.50;99.90;;;;;;5088428;28;20108;-65
2022/12/12 05:02:24;;;;;;;24.27;12.82;;;-0.50;99.90;;;;;;5088700;28;20051;-65
2022/12/12 05:04:56;;;;;;;23.15;12.00;;;-0.60;99.90;;;;;;5089798;28;20020;-64
2022/12/12 05:07:38;;;;;;;24.67;11.45;;;-0.60;99.90;;;;;;5088642;28;20111;-64
2022/12/12 05:10:08;;;;;;;20.00;10.93;;;-0.60;99.90;;;;;;5088554;28;20021;-64
2022/12/12 05:12:43;;;;;;;21.60;11.48;;;-0.60;99.90;;;;;;5091781;28;20029;-64
2022/12/12 05:15:10;;;;;;;22.33;12.23;;;-0.70;99.90;;;;;;5091328;28;20021;-64
2022/12/12 05:17:45;;;;;;;20.48;11.55;;;-0.70;99.90;;;;;;5072761;28;20024;-63
2022/12/12 05:20:11;;;;;;;17.90;10.60;;;-0.70;99.90;;;;;;5090747;28;20107;-64
2022/12/12 05:22:37;;;;;;;21.30;12.57;;;-0.70;99.90;;;;;;5088148;28;20028;-64
2022/12/12 05:25:03;;;;;;;27.65;15.23;;;-0.80;99.90;;;;;;5090141;28;20035;-64
2022/12/12 05:27:28;;;;;;;26.02;15.40;;;-0.80;99.90;;;;;;5094195;28;20024;-64
2022/12/12 05:29:54;;;;;;;23.77;13.20;;;-0.90;99.90;;;;;;5088210;28;20028;-64
2022/12/12 05:32:19;;;;;;;23.27;13.85;;;-0.90;99.90;;;;;;5070015;28;20556;-64
2022/12/12 05:34:45;;;;;;;23.15;12.80;;;-0.90;99.90;;;;;;5088087;28;20048;-64
2022/12/12 05:37:10;;;;;;;23.45;12.90;;;-0.90;99.90;;;;;;5088008;28;20032;-65
2022/12/12 05:39:36;;;;;;;21.00;11.15;;;-0.90;99.90;;;;;;5088304;28;20468;-64
2022/12/12 05:42:01;;;;;;;23.23;12.52;;;-0.90;99.90;;;;;;5093323;28;20030;-64
2022/12/12 05:44:27;;;;;;;20.38;11.88;;;-0.90;99.90;;;;;;5091010;28;20039;-64
2022/12/12 05:46:52;;;;;;;21.50;11.98;;;-0.90;99.90;;;;;;5090733;28;20107;-64
2022/12/12 05:49:18;;;;;;;18.08;10.48;;;-1.00;99.90;;;;;;5089344;28;20044;-64
2022/12/12 05:51:44;;;;;;;20.88;11.00;;;-1.00;99.90;;;;;;5087764;28;20482;-64
2022/12/12 05:54:09;;;;;;;20.45;10.95;;;-0.90;99.90;;;;;;5071699;28;20020;-64
2022/12/12 05:56:35;;;;;;;23.58;12.50;;;-1.00;99.90;;;;;;5087831;28;20039;-64
2022/12/12 05:59:01;;;;;;;26.75;14.02;;;-1.00;99.90;;;;;;5090445;28;20024;-64
2022/12/12 06:01:26;;;;;;;27.20;14.23;;;-1.10;99.90;;;;;;5088028;28;20397;-64
2022/12/12 06:03:52;;;;;;;26.52;14.07;;;-1.10;99.90;;;;;;5092011;28;20050;-64
2022/12/12 06:06:17;;;;;;;23.38;12.13;;;-1.20;99.90;;;;;;5074548;28;20047;-64
2022/12/12 06:08:43;;;;;;;22.90;12.32;;;-1.10;99.90;;;;;;5090778;28;20039;-64
2022/12/12 06:11:08;;;;;;;22.85;12.27;;;-1.20;99.90;;;;;;5091846;28;20023;-64
2022/12/12 06:13:35;;;;;;;21.33;11.55;;;-1.20;99.90;;;;;;5073196;28;20494;-64
2022/12/12 06:16:08;;;;;;;21.75;12.00;;;-1.20;99.90;;;;;;5105183;27;20024;-64
2022/12/12 06:18:34;;;;;;;21.88;11.98;;;-1.20;99.90;;;;;;5120424;27;20020;-65
2022/12/12 06:21:05;;;;;;;21.15;12.45;;;-1.20;99.90;;;;;;5095181;28;20023;-64
2022/12/12 06:23:33;;;;;;;21.27;11.75;;;-1.20;99.90;;;;;;5076858;28;20027;-64
2022/12/12 06:25:59;;;;;;;21.00;11.98;;;-1.30;99.90;;;;;;5106909;28;20376;-64
2022/12/12 06:28:24;;;;;;;20.42;11.52;;;-1.30;99.90;;;;;;5115034;28;20497;-64
2022/12/12 06:30:50;;;;;;;20.98;10.77;;;-1.30;99.90;;;;;;5103560;28;20035;-64
2022/12/12 06:33:15;;;;;;;21.73;12.45;;;-1.30;99.90;;;;;;5094381;28;20099;-63
2022/12/12 06:35:41;;;;;;;20.13;11.10;;;-1.30;99.90;;;;;;5094680;28;20089;-64
2022/12/12 06:38:07;;;;;;;17.85;10.52;;;-1.30;99.90;;;;;;5094981;28;20440;-64
2022/12/12 06:40:32;;;;;;;19.52;10.38;;;-1.30;99.90;;;;;;5094837;28;20043;-63
2022/12/12 06:42:58;;;;;;;25.33;13.23;;;-1.30;99.90;;;;;;5094959;28;20024;-64
2022/12/12 06:45:23;;;;;;;28.55;13.63;;;-1.40;99.90;;;;;;5092497;28;20036;-64
2022/12/12 06:47:50;;;;;;;23.00;12.15;;;-1.40;99.90;;;;;;5093246;28;20024;-63
2022/12/12 06:50:15;;;;;;;22.00;11.80;;;-1.40;99.90;;;;;;5095772;28;20533;-64
2022/12/12 06:52:41;;;;;;;21.88;12.40;;;-1.50;99.90;;;;;;5108444;28;20032;-64
2022/12/12 06:55:07;;;;;;;25.30;12.48;;;-1.50;99.90;;;;;;5112113;27;20063;-64
2022/12/12 06:57:32;;;;;;;25.10;12.07;;;-1.50;99.90;;;;;;5114348;28;20027;-64
2022/12/12 06:59:58;;;;;;;25.88;12.88;;;-1.50;99.90;;;;;;5098656;28;20028;-64
2022/12/12 07:02:23;;;;;;;21.83;12.82;;;-1.50;99.90;;;;;;5103626;28;20032;-64
2022/12/12 07:04:49;;;;;;;25.45;12.95;;;-1.50;99.90;;;;;;5113844;28;20173;-64
2022/12/12 07:07:14;;;;;;;27.17;14.50;;;-1.60;99.90;;;;;;5114383;28;20023;-64
2022/12/12 07:09:41;;;;;;;25.40;12.40;;;-1.60;99.90;;;;;;5092983;28;20389;-64
2022/12/12 07:12:06;;;;;;;26.67;13.75;;;-1.60;99.90;;;;;;5103183;28;20022;-63
2022/12/12 07:14:32;;;;;;;32.58;16.77;;;-1.70;99.90;;;;;;5098048;28;20024;-64
2022/12/12 07:16:57;;;;;;;30.50;17.20;;;-1.80;99.90;;;;;;5104632;27;20023;-63
2022/12/12 07:19:24;;;;;;;35.28;18.52;;;-1.80;99.90;;;;;;5114289;27;20067;-63
2022/12/12 07:21:49;;;;;;;40.75;21.38;;;-1.90;99.90;;;;;;5106995;28;20023;-63
2022/12/12 07:24:17;;;;;;;39.08;21.77;;;-2.00;99.90;;;;;;5093161;28;20028;-64
2022/12/12 07:26:43;;;;;;;46.42;22.08;;;-2.10;99.90;;;;;;5093579;28;20423;-64
2022/12/12 07:29:09;;;;;;;43.22;22.23;;;-2.10;99.90;;;;;;5094243;28;20481;-63
2022/12/12 07:31:34;;;;;;;39.78;21.05;;;-2.20;99.90;;;;;;5093776;28;20020;-64
2022/12/12 07:34:00;;;;;;;45.20;22.33;;;-2.20;99.90;;;;;;5093890;28;20390;-63
2022/12/12 07:36:25;;;;;;;41.92;21.88;;;-2.20;99.90;;;;;;5075220;28;20038;-63
2022/12/12 07:38:51;;;;;;;37.20;19.98;;;-2.30;99.90;;;;;;5093340;28;20020;-63
2022/12/12 07:41:19;;;;;;;37.85;19.25;;;-2.30;99.90;;;;;;5084128;28;20132;-64
2022/12/12 07:43:45;;;;;;;32.22;16.80;;;-2.20;99.90;;;;;;5097663;28;20028;-64
2022/12/12 07:46:20;;;;;;;29.58;15.15;;;-2.20;99.90;;;;;;5084807;28;20072;-64
2022/12/12 07:48:46;;;;;;;22.88;12.30;;;-2.10;99.90;;;;;;5100170;28;20020;-63
2022/12/12 07:51:13;;;;;;;24.45;12.50;;;-2.10;99.90;;;;;;5102864;28;20039;-63
2022/12/12 07:53:38;;;;;;;32.92;16.95;;;-2.10;99.90;;;;;;5093094;28;20024;-64
2022/12/12 07:56:06;;;;;;;41.28;20.20;;;-2.10;99.90;;;;;;5075525;28;20043;-63
2022/12/12 07:58:32;;;;;;;41.55;21.10;;;-2.20;99.90;;;;;;5092936;28;20097;-64
2022/12/12 08:00:58;;;;;;;44.45;22.67;;;-2.10;99.90;;;;;;5093131;28;20027;-64
2022/12/12 08:03:23;;;;;;;44.85;22.15;;;-2.20;99.90;;;;;;5108012;28;20019;-64
2022/12/12 08:05:49;;;;;;;41.70;20.90;;;-2.20;99.90;;;;;;5112522;28;20024;-64
2022/12/12 08:08:15;;;;;;;41.65;19.88;;;-2.20;99.90;;;;;;5111777;28;20038;-64
2022/12/12 08:10:40;;;;;;;38.28;18.60;;;-2.20;99.90;;;;;;5112033;28;20034;-64
2022/12/12 08:13:06;;;;;;;41.47;21.00;;;-2.20;99.90;;;;;;5092899;28;20315;-64
2022/12/12 08:15:32;;;;;;;35.72;18.15;;;-2.20;99.90;;;;;;5092231;27;20104;-64
2022/12/12 08:17:57;;;;;;;30.60;16.67;;;-2.20;99.90;;;;;;5112210;27;20139;-64
2022/12/12 08:20:23;;;;;;;30.40;15.30;;;-2.20;99.90;;;;;;5108226;28;20098;-64
2022/12/12 08:22:48;;;;;;;39.72;20.27;;;-2.10;99.90;;;;;;5111165;28;20076;-65
2022/12/12 08:25:14;;;;;;;47.03;22.10;;;-2.10;99.90;;;;;;5106530;28;20084;-64
2022/12/12 08:27:40;;;;;;;45.78;22.73;;;-2.10;99.90;;;;;;5104098;28;20031;-64
2022/12/12 08:30:07;;;;;;;43.25;21.98;;;-2.20;99.90;;;;;;5098265;28;20012;-64
2022/12/12 08:32:32;;;;;;;46.58;21.92;;;-2.20;99.90;;;;;;5112632;28;20473;-64
2022/12/12 08:34:58;;;;;;;41.58;21.52;;;-2.20;99.90;;;;;;5098119;28;20043;-63
2022/12/12 08:37:24;;;;;;;43.35;22.42;;;-2.20;99.90;;;;;;5109037;28;20026;-63
2022/12/12 08:39:49;;;;;;;46.42;23.27;;;-2.20;99.90;;;;;;5102043;28;20032;-63
2022/12/12 08:42:15;;;;;;;46.90;23.02;;;-2.20;99.90;;;;;;5103983;28;20039;-64
2022/12/12 08:44:40;;;;;;;48.53;22.33;;;-2.20;99.90;;;;;;5106417;28;20028;-64
2022/12/12 08:47:06;;;;;;;44.65;21.92;;;-2.20;99.90;;;;;;5114261;27;20118;-62
2022/12/12 08:49:31;;;;;;;49.25;23.20;;;-2.20;99.90;;;;;;5102079;28;20028;-64
2022/12/12 08:51:57;;;;;;;51.00;22.83;;;-2.20;99.90;;;;;;5092288;28;20089;-63
2022/12/12 08:54:24;;;;;;;48.33;22.48;;;-2.20;99.90;;;;;;5095806;28;20035;-64
2022/12/12 08:56:50;;;;;;;39.60;19.58;;;-2.10;99.90;;;;;;5104415;28;20024;-63
2022/12/12 08:59:15;;;;;;;49.85;23.20;;;-2.00;99.90;;;;;;5093134;28;20055;-63
2022/12/12 09:01:41;;;;;;;48.20;22.38;;;-1.90;99.90;;;;;;5098228;28;20080;-63
2022/12/12 09:04:07;;;;;;;47.17;23.17;;;-1.90;99.90;;;;;;5095073;28;20036;-63
2022/12/12 09:06:32;;;;;;;45.42;23.45;;;-1.90;99.90;;;;;;5094340;28;20034;-63
2022/12/12 09:08:58;;;;;;;50.10;23.48;;;-1.80;99.90;;;;;;5098064;28;20601;-63
2022/12/12 09:11:24;;;;;;;41.83;21.80;;;-1.80;99.90;;;;;;5097868;28;20023;-64
2022/12/12 09:13:49;;;;;;;42.65;22.63;;;-1.80;99.90;;;;;;5101257;28;20495;-63
2022/12/12 09:16:15;;;;;;;50.40;26.27;;;-1.70;99.90;;;;;;5096041;28;20489;-64
2022/12/12 09:18:41;;;;;;;41.40;22.42;;;-1.70;99.90;;;;;;5117082;28;20047;-63
2022/12/12 09:21:07;;;;;;;45.88;21.83;;;-1.70;99.90;;;;;;5092006;28;20078;-63
2022/12/12 09:23:33;;;;;;;38.67;20.00;;;-1.50;99.90;;;;;;5096447;28;20020;-63
2022/12/12 09:26:07;;;;;;;41.75;19.73;;;-1.50;99.90;;;;;;5112239;28;20070;-63
2022/12/12 09:28:33;;;;;;;43.05;22.08;;;-1.40;99.90;;;;;;5092741;28;20104;-64
2022/12/12 09:30:58;;;;;;;48.28;21.25;;;-1.30;99.90;;;;;;5092039;28;20102;-63
2022/12/12 09:33:24;;;;;;;48.83;22.35;;;-1.20;99.90;;;;;;5091743;28;20032;-62
2022/12/12 09:35:57;;;;;;;39.03;20.92;;;-1.20;99.90;;;;;;5091883;28;20020;-63
2022/12/12 09:38:23;;;;;;;43.85;21.48;;;-1.10;99.90;;;;;;5107488;28;20108;-64
2022/12/12 09:41:12;;;;;;;44.97;21.52;;;-1.10;99.90;;;;;;5091252;28;20111;-63
2022/12/12 09:43:50;;;;;;;44.42;20.92;;;-1.00;99.90;;;;;;5104392;28;20016;-64
2022/12/12 09:46:41;;;;;;;37.70;19.83;;;-0.90;99.90;;;;;;5091695;28;20541;-63
2022/12/12 09:49:47;;;;;;;38.65;18.30;;;-0.80;99.90;;;;;;5095564;28;20557;-63
2022/12/12 09:52:29;;;;;;;41.80;19.50;;;-0.60;99.90;;;;;;5101413;28;20058;-63
2022/12/12 09:54:55;;;;;;;38.97;19.30;;;-0.50;99.90;;;;;;5100248;28;20489;-64
2022/12/12 09:57:37;;;;;;;36.38;17.73;;;-0.30;99.90;;;;;;5095537;28;20115;-64
2022/12/12 10:00:14;;;;;;;39.80;19.58;;;-0.10;99.90;;;;;;5110976;28;20077;-63
2022/12/12 10:03:13;;;;;;;41.80;19.63;;;0.10;99.90;;;;;;5109850;28;20023;-63
2022/12/12 10:05:52;;;;;;;34.15;17.55;;;0.10;99.90;;;;;;5108724;28;20023;-63
2022/12/12 10:08:32;;;;;;;38.20;17.38;;;0.30;99.90;;;;;;5108798;28;20024;-64
2022/12/12 10:11:05;;;;;;;32.85;17.45;;;0.60;99.90;;;;;;5113563;28;20012;-63
2022/12/12 10:13:34;;;;;;;42.03;20.27;;;0.90;99.90;;;;;;5104602;28;20023;-63
2022/12/12 10:16:08;;;;;;;34.10;17.83;;;1.00;99.90;;;;;;5107540;28;20016;-63
2022/12/12 10:18:49;;;;;;;37.00;19.48;;;1.20;99.90;;;;;;5118102;27;20026;-63
2022/12/12 10:21:29;;;;;;;33.97;17.65;;;1.40;99.90;;;;;;5098824;28;20020;-63
2022/12/12 10:24:10;;;;;;;32.22;17.85;;;1.60;99.90;;;;;;5095265;28;20481;-63
2022/12/12 10:26:36;;;;;;;35.60;19.13;;;1.80;99.90;;;;;;5111351;28;20074;-63
2022/12/12 10:29:17;;;;;;;34.38;17.90;;;1.90;99.90;;;;;;5114123;28;20065;-63
2022/12/12 10:32:06;;;;;;;34.45;18.38;;;2.00;99.90;;;;;;5110435;28;20099;-63
2022/12/12 10:34:37;;;;;;;38.22;18.77;;;2.10;99.90;;;;;;5106417;28;20040;-63
2022/12/12 10:37:13;;;;;;;37.30;18.17;;;2.30;99.90;;;;;;5111507;28;21143;-63
2022/12/12 10:40:04;;;;;;;31.60;16.25;;;2.40;99.90;;;;;;5119822;27;20384;-62
2022/12/12 10:42:39;;;;;;;31.60;16.15;;;2.50;99.90;;;;;;5110796;28;20043;-63
2022/12/12 10:45:33;;;;;;;28.17;15.32;;;2.50;99.90;;;;;;5111054;28;20020;-63
2022/12/12 10:47:59;;;;;;;32.33;16.35;;;3.00;99.90;;;;;;5092356;28;20035;-63
2022/12/12 10:50:47;;;;;;;24.67;15.00;;;3.10;99.90;;;;;;5107999;28;20081;-63
2022/12/12 10:53:13;;;;;;;30.27;16.48;;;3.60;99.90;;;;;;5102179;28;20028;-62
2022/12/12 10:55:57;;;;;;;28.63;15.02;;;4.50;99.90;;;;;;5094473;28;20051;-62
2022/12/12 10:58:35;;;;;;;28.58;15.85;;;5.20;98.10;;;;;;5098668;28;20065;-63
2022/12/12 11:01:05;;;;;;;20.65;12.40;;;5.20;97.80;;;;;;5078990;28;20044;-63
2022/12/12 11:03:37;;;;;;;27.50;15.07;;;5.30;98.30;;;;;;5110378;28;20081;-63
2022/12/12 11:06:11;;;;;;;30.25;15.45;;;5.40;97.60;;;;;;5112817;28;20469;-63
2022/12/12 11:08:36;;;;;;;27.02;15.25;;;5.70;96.60;;;;;;5099826;28;20077;-63
2022/12/12 11:11:18;;;;;;;23.45;13.38;;;6.50;96.30;;;;;;5093268;28;20024;-64
2022/12/12 11:13:53;;;;;;;31.13;17.73;;;7.00;95.50;;;;;;5100315;28;20023;-64
2022/12/12 11:16:23;;;;;;;23.92;14.43;;;7.30;92.30;;;;;;5106073;28;20076;-64
2022/12/12 11:19:05;;;;;;;22.13;13.27;;;7.10;91.60;;;;;;5119371;27;20016;-64
2022/12/12 11:21:33;;;;;;;25.67;14.82;;;7.50;91.30;;;;;;5094232;28;20477;-64
2022/12/12 11:24:02;;;;;;;21.40;13.88;;;7.70;89.70;;;;;;5075748;28;20081;-64
2022/12/12 11:26:28;;;;;;;24.65;14.35;;;7.80;89.10;;;;;;5095245;28;20149;-64
2022/12/12 11:28:59;;;;;;;29.80;15.30;;;8.10;87.20;;;;;;5105449;28;20020;-64
2022/12/12 11:31:28;;;;;;;27.98;15.13;;;7.60;80.80;;;;;;5096896;28;20024;-63
2022/12/12 11:34:04;;;;;;;21.23;13.38;;;7.10;80.10;;;;;;5075441;28;20105;-63
2022/12/12 11:36:39;;;;;;;20.65;12.23;;;7.20;83.30;;;;;;5095505;28;20415;-64
2022/12/12 11:39:36;;;;;;;21.88;13.18;;;8.00;83.80;;;;;;5093353;28;20020;-64
2022/12/12 11:42:24;;;;;;;20.00;11.82;;;8.80;81.70;;;;;;5093315;28;20032;-64
2022/12/12 11:45:08;;;;;;;24.45;13.25;;;9.70;81.20;;;;;;5082772;28;20036;-64
2022/12/12 11:47:45;;;;;;;16.52;11.65;;;10.90;76.90;;;;;;5092985;28;20111;-64
2022/12/12 11:50:17;;;;;;;17.63;11.27;;;12.30;75.90;;;;;;5106933;28;20027;-64
2022/12/12 11:52:42;;;;;;;21.95;13.15;;;13.70;71.00;;;;;;5109111;28;20106;-64
2022/12/12 11:55:17;;;;;;;19.70;12.48;;;14.00;59.40;;;;;;5106008;28;20095;-64
2022/12/12 11:58:12;;;;;;;20.13;13.10;;;14.10;57.70;;;;;;5111021;28;20023;-64
2022/12/12 12:00:49;;;;;;;20.23;13.13;;;14.20;55.90;;;;;;5068676;28;20036;-64
2022/12/12 12:03:27;;;;;;;21.35;13.30;;;14.60;55.00;;;;;;5104809;28;20440;-65
2022/12/12 12:06:35;;;;;;;18.77;11.85;;;14.30;52.20;;;;;;5110243;28;20045;-64
2022/12/12 12:09:31;;;;;;;18.45;11.73;;;14.40;53.20;;;;;;5108459;28;20055;-64
2022/12/12 12:12:03;;;;;;;20.35;12.07;;;14.60;52.60;;;;;;5105991;28;20029;-65
2022/12/12 12:14:47;;;;;;;15.80;10.98;;;15.10;50.40;;;;;;5108931;28;20111;-65
2022/12/12 12:17:22;;;;;;;12.60;8.43;;;16.00;52.20;;;;;;5114294;27;20019;-65
2022/12/12 12:20:08;;;;;;;11.27;8.38;;;18.00;52.20;;;;;;5108960;28;20023;-64
2022/12/12 12:22:51;;;;;;;18.67;12.38;;;19.50;49.50;;;;;;5109480;28;20034;-64
2022/12/12 12:25:38;;;;;;;21.00;13.65;;;18.80;44.30;;;;;;5110456;28;20372;-64
2022/12/12 12:28:25;;;;;;;15.93;12.05;;;17.70;44.40;;;;;;5107346;28;20070;-65
2022/12/12 12:31:05;;;;;;;13.38;9.70;;;16.80;45.20;;;;;;5106620;28;20102;-64
2022/12/12 12:33:40;;;;;;;13.07;9.50;;;17.60;48.40;;;;;;5107919;28;20047;-64
2022/12/12 12:36:21;;;;;;;11.50;8.77;;;18.50;47.10;;;;;;5109185;28;20023;-65
2022/12/12 12:39:22;;;;;;;16.60;10.98;;;19.60;46.90;;;;;;5097631;28;20106;-65
2022/12/12 12:41:57;;;;;;;19.00;13.30;;;20.10;43.30;;;;;;5092785;28;20027;-65
2022/12/12 12:44:48;;;;;;;15.52;11.23;;;18.50;41.20;;;;;;5092294;28;20024;-65
2022/12/12 12:47:31;;;;;;;18.38;12.82;;;17.30;43.60;;;;;;5096502;28;20020;-65
2022/12/12 12:50:04;;;;;;;17.08;12.10;;;17.20;43.90;;;;;;5097928;28;20550;-65
2022/12/12 12:52:37;;;;;;;16.90;11.75;;;17.20;43.20;;;;;;5075232;28;20027;-65
2022/12/12 12:55:11;;;;;;;17.23;12.05;;;16.80;42.90;;;;;;5087884;28;20015;-65
2022/12/12 12:57:41;;;;;;;15.00;10.88;;;16.30;43.00;;;;;;5109455;28;20030;-65
2022/12/12 13:00:20;;;;;;;17.63;12.52;;;15.90;43.90;;;;;;5107824;28;20031;-65
2022/12/12 13:03:06;;;;;;;19.23;12.10;;;15.50;44.80;;;;;;5109159;28;20028;-65
2022/12/12 13:05:49;;;;;;;17.38;12.02;;;15.60;45.10;;;;;;5106451;28;20537;-65
2022/12/12 13:08:39;;;;;;;16.55;10.50;;;15.50;44.80;;;;;;5095888;28;20035;-65